Providence, Rhode Island
Traffic Map
Current Weather Conditions
Providence, Rhode Island
Broken Clouds
Broken Clouds
44°
Feels Like: 40°
Wind Chill: 40° Ceiling: 6000
Heat Index: 44° Visibility: 10mi
Dew Point: 39° Wind: 8mph
Humidity: 82% Direction: 160° (SSE)
Pressure: 30.4in Gusts: 0mph
Raw Report DataKPVD 141951Z 16007KT 10SM FEW022 BKN060 BKN250 07/04 A3040 RMK AO2 SLP295 T00670039
Traffic Incident Summary
Active as of:
Severity:
Category:
InformationThere was an issue retrieving the traffic information for this location. Please try a different location or try again shortly.
Advertisements